Terminal Aerodrome Forecast
Issued by NWS San Angelo, TX

Home | Current Version | Previous Version | Text Only | Print | Product List | Glossary On
Versions: 1 2 3 4 5 6 7 8 9 10 11 12 13 14 15 16 17 18
000
FTUS44 KSJT 281144
TAFABI
TAF
KABI 281144Z 2812/2912 20010KT P6SM SKC
      TEMPO 2812/2813 5SM BR
     FM281800 22011KT P6SM SCT050
     FM282000 16010KT P6SM BKN050
     FM290200 15010KT P6SM VCTS BKN035CB
     FM290500 15009KT P6SM BKN100=

USA.gov is the U.S. government's official web portal to all federal, state and local government web resources and services.